Time;durP1;ratioP1;P1;durP2;ratioP2;P2;SDS_P1;SDS_P2;PMS_P1;PMS_P2;Temp;Humidity;BMP_temperature;BMP_pressure;BME280_temperature;BME280_humidity;BME280_pressure;Samples;Min_cycle;Max_cycle;Signal;HPM_P1;HPM_P2
2022/06/05 00:00:32;;;;;;;12.95;7.20;;;13.00;99.90;;;;;;4904565;29;20043;-82
2022/06/05 00:03:28;;;;;;;13.05;7.45;;;13.00;99.90;;;;;;4885579;29;20048;-82
2022/06/05 00:06:20;;;;;;;10.88;7.13;;;13.00;99.90;;;;;;4906636;29;20052;-82
2022/06/05 00:09:20;;;;;;;13.73;7.65;;;12.90;99.90;;;;;;4904952;29;20050;-82
2022/06/05 00:11:58;;;;;;;11.48;7.57;;;12.90;99.90;;;;;;4884169;29;20036;-82
2022/06/05 00:14:24;;;;;;;13.77;7.82;;;12.80;99.90;;;;;;4893048;29;20063;-83
2022/06/05 00:16:49;;;;;;;10.77;7.63;;;12.80;99.90;;;;;;4908844;29;20437;-82
2022/06/05 00:19:16;;;;;;;13.20;7.93;;;12.70;99.90;;;;;;4877349;29;20040;-82
2022/06/05 00:21:41;;;;;;;13.13;7.50;;;12.70;99.90;;;;;;4891878;29;20048;-82
2022/06/05 00:24:08;;;;;;;11.98;7.47;;;12.70;99.90;;;;;;4882248;29;20103;-82
2022/06/05 00:26:46;;;;;;;12.98;8.48;;;12.70;99.90;;;;;;4890030;29;20508;-82
2022/06/05 00:29:29;;;;;;;15.25;8.05;;;12.70;99.90;;;;;;4891073;29;20080;-82
2022/06/05 00:32:37;;;;;;;11.27;7.22;;;12.60;99.90;;;;;;4885774;29;20039;-82
2022/06/05 00:35:04;;;;;;;9.20;7.82;;;12.70;99.90;;;;;;4863358;29;20076;-82
2022/06/05 00:37:55;;;;;;;11.77;7.93;;;12.60;99.90;;;;;;4881750;29;20048;-82
2022/06/05 00:40:37;;;;;;;13.40;8.25;;;12.70;99.90;;;;;;4877353;29;20044;-83
2022/06/05 00:43:09;;;;;;;9.60;7.80;;;12.60;99.90;;;;;;4898044;29;20045;-82
2022/06/05 00:45:35;;;;;;;12.10;7.85;;;12.60;99.90;;;;;;4889311;29;20096;-83
2022/06/05 00:48:01;;;;;;;16.35;8.75;;;12.60;99.90;;;;;;4887368;29;20048;-82
2022/06/05 00:50:29;;;;;;;12.65;8.40;;;12.60;99.90;;;;;;4903053;29;20056;-82
2022/06/05 00:53:06;;;;;;;14.25;8.73;;;12.50;99.90;;;;;;4902824;29;20035;-82
2022/06/05 00:55:40;;;;;;;12.13;8.27;;;12.60;99.90;;;;;;4903450;29;20048;-83
2022/06/05 00:58:06;;;;;;;12.20;8.60;;;12.60;99.90;;;;;;4903162;29;20051;-83
2022/06/05 01:00:42;;;;;;;14.98;8.48;;;12.60;99.90;;;;;;4887498;29;20040;-83
2022/06/05 01:03:10;;;;;;;15.60;8.90;;;12.60;99.90;;;;;;4917796;29;20039;-83
2022/06/05 01:05:36;;;;;;;13.55;9.02;;;12.60;99.90;;;;;;4900277;29;20139;-82
2022/06/05 01:08:04;;;;;;;11.68;8.02;;;12.50;99.90;;;;;;4898977;29;20047;-82
2022/06/05 01:10:42;;;;;;;13.45;8.52;;;12.30;99.90;;;;;;4887069;29;20055;-82
2022/06/05 01:13:36;;;;;;;16.42;8.52;;;12.50;99.90;;;;;;4899476;29;20041;-82
2022/06/05 01:16:32;;;;;;;14.52;8.95;;;12.50;99.90;;;;;;4902122;29;20044;-82
2022/06/05 01:19:11;;;;;;;12.90;8.13;;;12.50;99.90;;;;;;4902699;29;20397;-82
2022/06/05 01:21:52;;;;;;;14.43;9.25;;;12.50;99.90;;;;;;4902454;29;20044;-82
2022/06/05 01:24:56;;;;;;;15.60;8.88;;;12.50;99.90;;;;;;4874464;29;20044;-82
2022/06/05 01:27:27;;;;;;;14.20;9.02;;;12.40;99.90;;;;;;4886972;29;20051;-82
2022/06/05 01:30:21;;;;;;;14.80;8.75;;;12.40;99.90;;;;;;4902451;29;20045;-83
2022/06/05 01:32:59;;;;;;;14.25;9.00;;;12.40;99.90;;;;;;4899753;29;20374;-82
2022/06/05 01:35:29;;;;;;;15.82;9.48;;;12.30;99.90;;;;;;4882879;29;20059;-82
2022/06/05 01:38:00;;;;;;;13.25;9.00;;;12.40;99.90;;;;;;4883438;29;20131;-82
2022/06/05 01:40:32;;;;;;;12.73;9.38;;;12.30;99.90;;;;;;4907654;29;20051;-83
2022/06/05 01:43:15;;;;;;;14.55;9.32;;;12.40;99.90;;;;;;4902037;29;20044;-82
2022/06/05 01:45:51;;;;;;;11.73;9.40;;;12.40;99.90;;;;;;4886976;29;20051;-82
2022/06/05 01:48:27;;;;;;;14.10;9.65;;;12.30;99.90;;;;;;4902707;29;20044;-83
2022/06/05 01:50:57;;;;;;;18.67;10.07;;;12.30;99.90;;;;;;4886643;29;20055;-82
2022/06/05 01:53:33;;;;;;;15.48;9.73;;;12.30;99.90;;;;;;4879114;29;20120;-82
2022/06/05 01:56:36;;;;;;;17.13;9.93;;;12.30;99.90;;;;;;4914526;29;20050;-82
2022/06/05 01:59:12;;;;;;;15.98;10.65;;;12.30;99.90;;;;;;4901779;29;20114;-83
2022/06/05 02:01:41;;;;;;;17.10;10.13;;;12.30;99.90;;;;;;4898755;29;20051;-82
2022/06/05 02:04:21;;;;;;;15.63;10.60;;;12.30;99.90;;;;;;4880007;29;20048;-82
2022/06/05 02:07:12;;;;;;;16.23;11.13;;;12.30;99.90;;;;;;4901165;29;20501;-82
2022/06/05 02:09:52;;;;;;;14.80;10.18;;;12.30;99.90;;;;;;4891118;29;20050;-82
2022/06/05 02:12:19;;;;;;;16.75;11.27;;;12.20;99.90;;;;;;4885886;29;20048;-82
2022/06/05 02:14:45;;;;;;;15.13;12.20;;;12.20;99.90;;;;;;4870181;29;20041;-83
2022/06/05 02:17:11;;;;;;;15.15;11.10;;;12.20;99.90;;;;;;4887261;29;20044;-82
2022/06/05 02:19:38;;;;;;;13.88;10.80;;;12.20;99.90;;;;;;4910465;29;20043;-82
2022/06/05 02:22:11;;;;;;;16.92;11.18;;;12.20;99.90;;;;;;4854195;29;20080;-82
2022/06/05 02:24:36;;;;;;;18.55;12.25;;;12.20;99.90;;;;;;4897559;29;20058;-82
2022/06/05 02:27:04;;;;;;;17.23;11.05;;;12.20;99.90;;;;;;4868279;29;20131;-82
2022/06/05 02:29:30;;;;;;;18.40;11.70;;;12.30;99.90;;;;;;4886430;29;20082;-82
2022/06/05 02:32:05;;;;;;;15.40;12.15;;;12.30;99.90;;;;;;4910389;29;20080;-82
2022/06/05 02:35:05;;;;;;;20.10;12.60;;;12.30;99.90;;;;;;4895401;29;20147;-82
2022/06/05 02:37:48;;;;;;;20.42;12.65;;;12.30;99.90;;;;;;4852522;29;20052;-82
2022/06/05 02:40:21;;;;;;;16.42;11.70;;;12.30;99.90;;;;;;4892113;29;20040;-83
2022/06/05 02:43:02;;;;;;;18.23;12.60;;;12.20;99.90;;;;;;4893934;29;20088;-83
2022/06/05 02:45:39;;;;;;;20.02;12.60;;;12.20;99.90;;;;;;4918203;29;20083;-83
2022/06/05 02:48:11;;;;;;;16.08;11.88;;;12.30;99.90;;;;;;4898875;29;20044;-82
2022/06/05 02:50:48;;;;;;;14.32;12.15;;;12.20;99.90;;;;;;4912412;29;20044;-82
2022/06/05 02:53:15;;;;;;;18.65;12.13;;;12.30;99.90;;;;;;4895223;29;20043;-82
2022/06/05 02:55:41;;;;;;;19.40;12.75;;;12.30;99.90;;;;;;4903937;29;20044;-82
2022/06/05 02:58:09;;;;;;;20.05;12.68;;;12.30;99.90;;;;;;4889477;29;20040;-82
2022/06/05 03:00:36;;;;;;;18.10;13.10;;;12.30;99.90;;;;;;4880870;29;20043;-82
2022/06/05 03:05:47;;;;;;;16.35;13.10;;;12.30;99.90;;;;;;4884094;29;20135;-83
2022/06/05 03:08:14;;;;;;;18.15;13.52;;;12.30;99.90;;;;;;4870146;29;20471;-82
2022/06/05 03:10:41;;;;;;;21.60;12.98;;;12.30;99.90;;;;;;4901554;29;20044;-83
2022/06/05 03:13:07;;;;;;;15.85;12.98;;;12.40;99.90;;;;;;4866469;29;20044;-82
2022/06/05 03:15:34;;;;;;;17.02;12.98;;;12.30;99.90;;;;;;4890641;29;20055;-82
2022/06/05 03:18:00;;;;;;;17.75;12.65;;;12.30;99.90;;;;;;4884385;29;20378;-83
2022/06/05 03:20:26;;;;;;;21.20;12.65;;;12.30;99.90;;;;;;4900725;29;20040;-82
2022/06/05 03:22:52;;;;;;;18.25;13.10;;;12.30;99.90;;;;;;4898878;29;20111;-83
2022/06/05 03:25:20;;;;;;;19.40;12.70;;;12.30;99.90;;;;;;4902931;29;20374;-82
2022/06/05 03:27:47;;;;;;;16.60;13.00;;;12.30;99.90;;;;;;4904150;29;20127;-82
2022/06/05 03:30:14;;;;;;;17.70;12.68;;;12.30;99.90;;;;;;4906847;29;20047;-82
2022/06/05 03:32:40;;;;;;;22.58;13.38;;;12.30;99.90;;;;;;4904093;29;20512;-82
2022/06/05 03:35:07;;;;;;;19.15;13.02;;;12.30;99.90;;;;;;4888699;29;20048;-82
2022/06/05 03:37:32;;;;;;;18.17;13.25;;;12.30;99.90;;;;;;4918970;29;20044;-82
2022/06/05 03:39:58;;;;;;;15.57;12.82;;;12.20;99.90;;;;;;4887245;29;20058;-82
2022/06/05 03:42:24;;;;;;;17.13;12.23;;;12.20;99.90;;;;;;4873954;29;20133;-82
2022/06/05 03:44:50;;;;;;;16.90;13.30;;;12.20;99.90;;;;;;4887755;29;20044;-83
2022/06/05 03:47:16;;;;;;;18.58;12.85;;;12.20;99.90;;;;;;4913968;29;20048;-82
2022/06/05 03:49:42;;;;;;;19.17;13.45;;;12.20;99.90;;;;;;4901236;29;20467;-82
2022/06/05 03:52:09;;;;;;;18.23;12.48;;;12.30;99.90;;;;;;4897417;29;20112;-82
2022/06/05 03:54:36;;;;;;;18.33;12.77;;;12.20;99.90;;;;;;4889984;29;20076;-82
2022/06/05 03:57:03;;;;;;;17.13;12.52;;;12.30;99.90;;;;;;4873945;29;20556;-82
2022/06/05 03:59:29;;;;;;;17.70;13.25;;;12.30;99.90;;;;;;4889379;29;20363;-83
2022/06/05 04:01:55;;;;;;;17.58;12.98;;;12.30;99.90;;;;;;4904609;29;20060;-82
2022/06/05 04:04:21;;;;;;;20.52;13.65;;;12.30;99.90;;;;;;4889639;29;20036;-82
2022/06/05 04:06:48;;;;;;;16.38;12.23;;;12.40;99.90;;;;;;4901671;29;20048;-82
2022/06/05 04:09:14;;;;;;;19.65;13.32;;;12.30;99.90;;;;;;4907766;29;20104;-83
2022/06/05 04:11:40;;;;;;;17.13;13.20;;;12.40;99.90;;;;;;4904522;29;20091;-82
2022/06/05 04:14:10;;;;;;;17.58;12.30;;;12.40;99.90;;;;;;4926472;29;20032;-82
2022/06/05 04:16:38;;;;;;;18.25;12.90;;;12.40;99.90;;;;;;4884699;29;20135;-82
2022/06/05 04:19:04;;;;;;;21.58;12.77;;;12.40;99.90;;;;;;4882702;29;20050;-82
2022/06/05 04:21:34;;;;;;;20.38;12.95;;;12.50;99.90;;;;;;4891891;29;20123;-82
2022/06/05 04:23:59;;;;;;;15.77;13.25;;;12.60;99.90;;;;;;4894327;29;20103;-82
2022/06/05 04:26:30;;;;;;;19.95;13.02;;;12.60;99.90;;;;;;4904490;29;20032;-82
2022/06/05 04:28:56;;;;;;;20.30;12.90;;;12.70;99.90;;;;;;4905308;29;20124;-82
2022/06/05 04:31:25;;;;;;;17.10;11.95;;;12.70;99.90;;;;;;4902297;29;20048;-83
2022/06/05 04:33:53;;;;;;;19.10;12.85;;;12.70;99.90;;;;;;4914098;29;20107;-82
2022/06/05 04:36:20;;;;;;;17.13;11.82;;;12.80;99.90;;;;;;4898204;29;20044;-82
2022/06/05 04:38:46;;;;;;;15.05;12.52;;;12.80;99.90;;;;;;4916482;29;20503;-83
2022/06/05 04:41:12;;;;;;;17.23;12.23;;;12.80;99.90;;;;;;4887995;29;20123;-82
2022/06/05 04:43:38;;;;;;;15.82;12.13;;;12.90;99.90;;;;;;4892858;29;20082;-82
2022/06/05 04:46:05;;;;;;;16.48;12.65;;;12.90;99.90;;;;;;4892964;29;20683;-82
2022/06/05 04:48:31;;;;;;;15.88;12.32;;;13.00;99.90;;;;;;4901320;29;20131;-82
2022/06/05 04:50:57;;;;;;;16.08;12.23;;;13.00;99.90;;;;;;4875802;29;20400;-82
2022/06/05 04:53:23;;;;;;;20.95;12.73;;;13.00;99.90;;;;;;4889552;29;20058;-82
2022/06/05 04:55:49;;;;;;;20.27;12.10;;;13.10;99.90;;;;;;4890934;29;20123;-82
2022/06/05 04:58:15;;;;;;;14.20;11.55;;;13.10;99.90;;;;;;4892046;29;20036;-82
2022/06/05 05:00:41;;;;;;;15.00;11.88;;;13.20;99.90;;;;;;4872008;29;20444;-82
2022/06/05 05:03:07;;;;;;;14.75;12.00;;;13.20;99.90;;;;;;4885991;29;20397;-82
2022/06/05 05:05:34;;;;;;;17.10;12.10;;;13.20;99.90;;;;;;4892446;29;20044;-82
2022/06/05 05:08:00;;;;;;;15.48;11.85;;;13.20;99.90;;;;;;4905529;29;20608;-82
2022/06/05 05:10:26;;;;;;;15.40;12.07;;;13.30;99.90;;;;;;4906804;29;20087;-82
2022/06/05 05:12:52;;;;;;;16.45;11.85;;;13.30;99.90;;;;;;4888060;29;20135;-82
2022/06/05 05:15:18;;;;;;;17.80;12.23;;;13.30;99.90;;;;;;4901824;29;20085;-82
2022/06/05 05:17:44;;;;;;;16.70;12.32;;;13.30;99.90;;;;;;4876862;29;20366;-83
2022/06/05 05:20:11;;;;;;;16.77;11.95;;;13.40;99.90;;;;;;4903985;29;20171;-82
2022/06/05 05:22:40;;;;;;;16.73;11.23;;;13.40;99.90;;;;;;4899610;29;20056;-82
2022/06/05 05:25:08;;;;;;;15.90;12.23;;;13.40;99.90;;;;;;4884442;29;20044;-82
2022/06/05 05:27:35;;;;;;;17.83;11.60;;;13.40;99.90;;;;;;4925847;29;20043;-82
2022/06/05 05:30:03;;;;;;;19.20;12.13;;;13.50;99.90;;;;;;4907377;29;20079;-82
2022/06/05 05:32:29;;;;;;;17.05;11.38;;;13.50;99.90;;;;;;4899849;29;20052;-83
2022/06/05 05:34:55;;;;;;;15.23;11.68;;;13.60;99.90;;;;;;4900013;29;20040;-82
2022/06/05 05:37:20;;;;;;;16.38;12.27;;;13.60;99.90;;;;;;4912490;29;20050;-82
2022/06/05 05:42:31;;;;;;;17.15;12.32;;;13.70;99.90;;;;;;4890006;29;20087;-82
2022/06/05 05:44:57;;;;;;;14.27;11.88;;;13.70;99.90;;;;;;4885144;29;20055;-82
2022/06/05 05:47:31;;;;;;;14.57;12.15;;;13.70;99.90;;;;;;4872471;29;20044;-82
2022/06/05 05:50:00;;;;;;;19.55;13.15;;;13.80;99.90;;;;;;4901036;29;20044;-82
2022/06/05 05:52:26;;;;;;;16.88;12.60;;;13.90;99.90;;;;;;4893292;29;20044;-83
2022/06/05 05:54:52;;;;;;;19.55;12.07;;;13.90;99.90;;;;;;4920112;29;20258;-82
2022/06/05 05:57:18;;;;;;;16.58;12.77;;;14.00;99.90;;;;;;4882276;29;20055;-82
2022/06/05 05:59:46;;;;;;;15.43;11.80;;;14.10;99.90;;;;;;4899165;29;20617;-81
2022/06/05 06:02:16;;;;;;;13.90;11.95;;;14.10;99.90;;;;;;4901554;29;20123;-82
2022/06/05 06:04:42;;;;;;;14.65;12.18;;;14.20;99.90;;;;;;4904510;29;20052;-82
2022/06/05 06:07:10;;;;;;;15.25;11.85;;;14.30;99.90;;;;;;4872251;29;20040;-83
2022/06/05 06:09:36;;;;;;;17.88;12.38;;;14.40;99.90;;;;;;4916338;29;20044;-83
2022/06/05 06:12:02;;;;;;;14.00;11.32;;;14.40;99.90;;;;;;4908299;29;20044;-82
2022/06/05 06:14:28;;;;;;;17.50;12.10;;;14.50;99.90;;;;;;4889508;29;20088;-82
2022/06/05 06:16:54;;;;;;;18.75;12.48;;;14.60;99.90;;;;;;4903718;29;20048;-82
2022/06/05 06:19:20;;;;;;;16.60;12.60;;;14.60;99.90;;;;;;4908830;29;20524;-82
2022/06/05 06:21:45;;;;;;;15.05;11.50;;;14.70;99.90;;;;;;4914588;29;20040;-82
2022/06/05 06:24:12;;;;;;;17.52;11.32;;;14.80;99.90;;;;;;4903688;29;20043;-82
2022/06/05 06:26:39;;;;;;;17.50;12.27;;;14.90;99.90;;;;;;4884971;29;20045;-83
2022/06/05 06:29:05;;;;;;;15.35;12.13;;;14.90;99.90;;;;;;4871995;29;20040;-82
2022/06/05 06:31:31;;;;;;;14.57;10.63;;;15.00;99.90;;;;;;4873335;29;20047;-82
2022/06/05 06:33:56;;;;;;;15.63;11.65;;;15.10;99.90;;;;;;4922426;29;20044;-82
2022/06/05 06:36:22;;;;;;;14.32;10.48;;;15.30;99.90;;;;;;4890126;29;20078;-82
2022/06/05 06:38:48;;;;;;;14.50;11.15;;;15.30;99.90;;;;;;4878680;29;20044;-82
2022/06/05 06:41:18;;;;;;;14.93;10.93;;;15.50;99.90;;;;;;4887173;29;20040;-82
2022/06/05 06:43:45;;;;;;;13.50;10.32;;;15.60;99.90;;;;;;4908967;29;20043;-83
2022/06/05 06:46:12;;;;;;;13.00;10.80;;;15.70;99.90;;;;;;4908495;29;20040;-82
2022/06/05 06:48:38;;;;;;;14.45;11.30;;;15.80;99.90;;;;;;4906706;29;20599;-82
2022/06/05 06:51:05;;;;;;;13.20;10.77;;;16.00;99.90;;;;;;4881076;29;20071;-82
2022/06/05 06:53:32;;;;;;;13.25;10.70;;;16.10;99.90;;;;;;4902108;29;20059;-82
2022/06/05 06:55:58;;;;;;;13.13;10.25;;;16.20;99.90;;;;;;4877703;29;20052;-83
2022/06/05 06:58:24;;;;;;;12.77;10.18;;;16.20;99.90;;;;;;4843882;29;20421;-83
2022/06/05 07:00:49;;;;;;;16.40;9.75;;;16.20;99.90;;;;;;4864613;29;20039;-82
2022/06/05 07:03:15;;;;;;;13.00;10.40;;;16.30;99.90;;;;;;4865533;29;20109;-83
2022/06/05 07:05:41;;;;;;;12.32;9.43;;;16.40;99.90;;;;;;4867227;29;20079;-82
2022/06/05 07:08:09;;;;;;;12.48;9.63;;;16.40;99.90;;;;;;4885843;29;20072;-82
2022/06/05 07:10:36;;;;;;;11.68;9.85;;;16.40;99.90;;;;;;4894077;29;20581;-83
2022/06/05 07:13:03;;;;;;;11.68;9.75;;;16.40;99.90;;;;;;4864221;29;20045;-83
2022/06/05 07:15:34;;;;;;;11.73;9.88;;;16.40;99.90;;;;;;4880051;29;20451;-82
2022/06/05 07:18:04;;;;;;;13.30;9.88;;;16.40;99.90;;;;;;4882974;29;20379;-82
2022/06/05 07:20:34;;;;;;;13.68;10.02;;;16.40;99.90;;;;;;4874075;29;20482;-82
2022/06/05 07:23:01;;;;;;;12.20;9.95;;;16.40;99.90;;;;;;4891840;29;20048;-82
2022/06/05 07:25:28;;;;;;;13.82;9.50;;;16.40;99.90;;;;;;4857376;29;20057;-83
2022/06/05 07:27:53;;;;;;;11.85;9.25;;;16.40;99.90;;;;;;4866352;29;20048;-83
2022/06/05 07:30:21;;;;;;;10.55;9.48;;;16.40;99.90;;;;;;4867735;29;20109;-82
2022/06/05 07:32:47;;;;;;;12.38;9.60;;;16.40;99.90;;;;;;4872875;29;20457;-83
2022/06/05 07:35:14;;;;;;;10.23;9.10;;;16.50;99.90;;;;;;4872477;29;20045;-82
2022/06/05 07:37:40;;;;;;;10.20;8.90;;;16.50;99.90;;;;;;4885008;29;20516;-83
2022/06/05 07:40:07;;;;;;;10.88;9.23;;;16.60;99.90;;;;;;4859038;29;20402;-83
2022/06/05 07:42:38;;;;;;;10.75;9.65;;;16.60;99.90;;;;;;4873584;29;20044;-83
2022/06/05 07:45:05;;;;;;;13.75;10.05;;;16.70;99.90;;;;;;4885893;29;20053;-82
2022/06/05 07:47:31;;;;;;;10.45;9.07;;;16.80;99.90;;;;;;4878050;29;20132;-82
2022/06/05 07:49:57;;;;;;;13.73;9.60;;;16.90;99.90;;;;;;4876214;29;20044;-83
2022/06/05 07:55:09;;;;;;;11.13;8.82;;;17.10;99.90;;;;;;4899391;29;20060;-83
2022/06/05 07:57:34;;;;;;;13.43;9.57;;;17.20;99.90;;;;;;4890198;29;20043;-82
2022/06/05 08:00:00;;;;;;;11.35;8.82;;;17.30;99.90;;;;;;4868327;29;20500;-82
2022/06/05 08:02:27;;;;;;;12.38;9.57;;;17.40;99.90;;;;;;4891936;29;20132;-82
2022/06/05 08:04:54;;;;;;;10.73;9.40;;;17.40;99.90;;;;;;4896714;29;20084;-83
2022/06/05 08:07:31;;;;;;;9.43;8.52;;;17.50;99.90;;;;;;4890874;29;20040;-83
2022/06/05 08:09:58;;;;;;;9.57;8.52;;;17.60;99.90;;;;;;4895434;29;20103;-82
2022/06/05 08:12:30;;;;;;;11.93;9.35;;;17.70;99.90;;;;;;4915097;29;20055;-82
2022/06/05 08:14:56;;;;;;;12.40;8.82;;;17.70;99.90;;;;;;4908553;29;20096;-82
2022/06/05 08:17:30;;;;;;;10.63;8.60;;;17.80;99.90;;;;;;4897678;29;20040;-82
2022/06/05 08:19:57;;;;;;;9.75;8.00;;;17.90;99.90;;;;;;4895770;29;20438;-82
2022/06/05 08:22:24;;;;;;;10.05;8.30;;;18.00;99.90;;;;;;4911356;29;20044;-82
2022/06/05 08:24:52;;;;;;;10.80;7.80;;;18.10;99.90;;;;;;4906796;29;20052;-82
2022/06/05 08:27:20;;;;;;;9.68;8.32;;;18.30;99.90;;;;;;4905162;29;20048;-82
2022/06/05 08:29:46;;;;;;;11.65;8.43;;;18.40;99.90;;;;;;4871619;29;20445;-82
2022/06/05 08:32:13;;;;;;;11.30;7.97;;;18.60;99.90;;;;;;4903263;29;20108;-82
2022/06/05 08:34:40;;;;;;;9.65;7.40;;;18.70;99.90;;;;;;4891363;29;20135;-82
2022/06/05 08:42:54;;;;;;;10.65;8.20;;;19.20;99.90;;;;;;4904428;29;20106;-82
2022/06/05 08:45:27;;;;;;;8.27;7.28;;;19.40;99.90;;;;;;4887955;29;20083;-83
2022/06/05 08:47:56;;;;;;;9.73;7.20;;;19.50;99.90;;;;;;4884154;29;20051;-83
2022/06/05 08:50:38;;;;;;;9.43;7.72;;;19.70;99.90;;;;;;4906166;29;20048;-83
2022/06/05 08:53:12;;;;;;;9.57;7.25;;;19.90;99.90;;;;;;4894274;29;20075;-83
2022/06/05 08:55:41;;;;;;;9.63;7.03;;;20.10;99.90;;;;;;4888171;29;20461;-83
2022/06/05 08:58:31;;;;;;;8.18;6.45;;;20.30;99.90;;;;;;4903671;29;20481;-83
2022/06/05 09:01:21;;;;;;;7.93;6.43;;;20.60;99.90;;;;;;4887722;29;20055;-83
2022/06/05 09:04:09;;;;;;;7.82;6.65;;;20.80;99.90;;;;;;4891483;29;20196;-83
2022/06/05 09:06:41;;;;;;;9.00;6.60;;;20.90;99.90;;;;;;4897675;29;20067;-83
2022/06/05 09:09:20;;;;;;;9.10;6.40;;;21.10;99.90;;;;;;4887328;29;20048;-83
2022/06/05 09:11:49;;;;;;;10.93;7.18;;;21.20;99.90;;;;;;4903382;29;20051;-82
2022/06/05 09:14:34;;;;;;;7.40;6.70;;;21.30;99.90;;;;;;4903345;29;20055;-83
2022/06/05 09:17:10;;;;;;;8.40;6.20;;;21.30;99.90;;;;;;4903331;29;20400;-83
2022/06/05 09:19:35;;;;;;;9.05;6.57;;;21.40;99.90;;;;;;4898452;29;20035;-83
2022/06/05 09:22:11;;;;;;;7.25;6.35;;;21.40;99.90;;;;;;4888092;29;20512;-83
2022/06/05 09:24:56;;;;;;;7.03;6.32;;;21.50;99.90;;;;;;4917057;29;20044;-83
2022/06/05 09:27:47;;;;;;;10.18;6.50;;;21.50;99.90;;;;;;4903875;29;20064;-82
2022/06/05 09:30:51;;;;;;;7.07;6.00;;;21.50;99.90;;;;;;4904397;29;20130;-83
2022/06/05 09:33:34;;;;;;;7.70;6.20;;;21.50;99.90;;;;;;4903922;29;20048;-83
2022/06/05 09:36:15;;;;;;;6.70;6.05;;;21.60;99.90;;;;;;4909917;29;20524;-83
2022/06/05 09:38:45;;;;;;;8.02;6.55;;;21.60;99.90;;;;;;4909545;29;20044;-83
2022/06/05 09:41:11;;;;;;;7.80;6.25;;;21.70;99.90;;;;;;4886775;29;20400;-83
2022/06/05 09:44:13;;;;;;;7.65;6.40;;;21.70;99.90;;;;;;4905063;29;20126;-83
2022/06/05 09:46:47;;;;;;;7.18;5.82;;;21.70;99.90;;;;;;4884481;29;20078;-83
2022/06/05 09:49:32;;;;;;;6.82;5.97;;;21.80;99.90;;;;;;4887408;29;20511;-83
2022/06/05 09:52:20;;;;;;;7.03;6.28;;;21.80;99.90;;;;;;4887037;29;20048;-83
2022/06/05 09:54:52;;;;;;;7.22;5.80;;;21.90;99.90;;;;;;4892288;29;20112;-83
2022/06/05 10:00:16;;;;;;;6.28;5.68;;;21.90;99.90;;;;;;4901293;29;20048;-83
2022/06/05 10:02:47;;;;;;;6.90;5.72;;;21.90;99.90;;;;;;4902292;29;20103;-83
2022/06/05 10:05:32;;;;;;;7.80;6.20;;;22.00;99.90;;;;;;4902101;29;20108;-83
2022/06/05 10:08:16;;;;;;;8.65;6.25;;;22.00;99.90;;;;;;4900146;29;20044;-83
2022/06/05 10:10:43;;;;;;;7.13;6.40;;;22.00;99.90;;;;;;4894888;29;20123;-83
2022/06/05 10:13:21;;;;;;;7.28;6.10;;;22.10;99.90;;;;;;4890531;29;20104;-83
2022/06/05 10:16:10;;;;;;;7.35;6.03;;;22.20;99.90;;;;;;4899682;29;20044;-83
2022/06/05 10:18:47;;;;;;;6.53;5.60;;;22.20;99.90;;;;;;4884089;29;20453;-83
2022/06/05 10:21:14;;;;;;;7.18;5.72;;;22.30;99.90;;;;;;4908050;29;20203;-82
2022/06/05 10:23:51;;;;;;;8.73;6.00;;;22.40;99.90;;;;;;4889717;29;20040;-83
2022/06/05 10:26:51;;;;;;;7.95;6.70;;;22.50;99.90;;;;;;4892745;29;20392;-83
2022/06/05 10:29:35;;;;;;;7.20;6.20;;;22.50;99.90;;;;;;4840280;29;20083;-83
2022/06/05 10:32:00;;;;;;;6.40;5.38;;;22.60;99.90;;;;;;4901672;29;20048;-83
2022/06/05 10:34:54;;;;;;;7.00;5.85;;;22.60;99.90;;;;;;4891132;29;20059;-82
2022/06/05 10:37:39;;;;;;;7.15;5.70;;;22.60;99.90;;;;;;4873961;29;20123;-83
2022/06/05 10:40:20;;;;;;;6.95;6.25;;;22.60;99.90;;;;;;4900956;29;20047;-83
2022/06/05 10:43:31;;;;;;;6.40;5.80;;;22.60;99.90;;;;;;4904930;29;20567;-83
2022/06/05 10:46:20;;;;;;;6.30;5.70;;;22.60;99.90;;;;;;4901679;29;20131;-83
2022/06/05 10:48:49;;;;;;;7.68;5.97;;;22.60;99.90;;;;;;4895405;29;20039;-83
2022/06/05 10:51:31;;;;;;;7.13;6.00;;;22.60;99.90;;;;;;4892158;29;20045;-83
2022/06/05 10:54:19;;;;;;;8.15;6.50;;;22.60;99.90;;;;;;4893106;29;20060;-84
2022/06/05 10:56:57;;;;;;;8.07;6.00;;;22.70;99.90;;;;;;4859852;29;20059;-83
2022/06/05 10:59:38;;;;;;;7.03;6.00;;;22.60;99.90;;;;;;4879378;29;20076;-83
2022/06/05 11:02:46;;;;;;;8.55;6.03;;;22.60;99.90;;;;;;4873650;29;20048;-83
2022/06/05 11:05:26;;;;;;;6.88;6.05;;;22.60;99.90;;;;;;4867209;29;20049;-83
2022/06/05 11:07:57;;;;;;;8.45;6.18;;;22.60;99.90;;;;;;4876363;29;20099;-83
2022/06/05 11:13:40;;;;;;;7.75;6.05;;;22.60;99.90;;;;;;4879339;29;20045;-83
2022/06/05 11:16:17;;;;;;;7.45;5.75;;;22.60;99.90;;;;;;4872814;29;20044;-83
2022/06/05 11:18:52;;;;;;;9.43;5.90;;;22.60;99.90;;;;;;4864804;29;20048;-83
2022/06/05 11:21:21;;;;;;;6.60;5.68;;;22.60;99.90;;;;;;4863680;29;20097;-83
2022/06/05 11:23:51;;;;;;;7.35;5.70;;;22.60;99.90;;;;;;4882365;29;20048;-83
2022/06/05 11:26:35;;;;;;;7.15;6.00;;;22.60;99.90;;;;;;4875237;29;20041;-83
2022/06/05 11:29:42;;;;;;;6.82;5.70;;;22.60;99.90;;;;;;4868471;29;20124;-83
2022/06/05 11:32:40;;;;;;;9.27;6.30;;;22.60;99.90;;;;;;4868247;29;20051;-83
2022/06/05 11:35:25;;;;;;;6.82;5.68;;;22.60;99.90;;;;;;4883098;29;20398;-83
2022/06/05 11:37:55;;;;;;;7.32;6.10;;;22.70;99.90;;;;;;4872609;29;20037;-83
2022/06/05 11:40:34;;;;;;;8.93;5.88;;;22.70;99.90;;;;;;4877554;29;20092;-83
2022/06/05 11:43:27;;;;;;;8.73;6.50;;;22.70;99.90;;;;;;4860076;29;20406;-83
2022/06/05 11:46:01;;;;;;;6.60;5.90;;;22.80;99.90;;;;;;4863263;29;20049;-83
2022/06/05 11:48:36;;;;;;;9.65;6.95;;;22.80;99.90;;;;;;4870344;29;20048;-83
2022/06/05 11:51:21;;;;;;;8.10;6.00;;;22.80;99.90;;;;;;4882166;29;20080;-83
2022/06/05 11:54:07;;;;;;;7.53;6.30;;;22.80;99.90;;;;;;4870345;29;20079;-83
2022/06/05 11:56:39;;;;;;;8.10;5.97;;;22.80;99.90;;;;;;4872052;29;20087;-83
2022/06/05 11:59:22;;;;;;;8.15;6.32;;;22.70;99.90;;;;;;4853946;29;20418;-83
2022/06/05 12:01:56;;;;;;;7.50;6.18;;;22.80;99.90;;;;;;4868327;29;20044;-83
2022/06/05 12:04:54;;;;;;;12.50;6.65;;;22.70;99.90;;;;;;4887706;29;20049;-83
2022/06/05 12:07:20;;;;;;;7.03;6.32;;;22.70;99.90;;;;;;4833070;29;20399;-83
2022/06/05 12:10:00;;;;;;;7.45;6.13;;;22.70;99.90;;;;;;4870768;29;20041;-83
2022/06/05 12:12:35;;;;;;;8.20;6.53;;;22.70;99.90;;;;;;4888919;29;20036;-83
2022/06/05 12:15:22;;;;;;;7.65;6.25;;;22.70;99.90;;;;;;4867171;29;20113;-82
2022/06/05 12:17:53;;;;;;;7.85;6.40;;;22.70;99.90;;;;;;4884942;29;20040;-83
2022/06/05 12:20:45;;;;;;;6.15;5.63;;;22.70;99.90;;;;;;4862353;29;20051;-83
2022/06/05 12:23:21;;;;;;;6.55;5.85;;;22.40;99.90;;;;;;4887862;29;20135;-83
2022/06/05 12:25:53;;;;;;;;;;;22.70;99.90;;;;;;4870079;29;20401;-83
2022/06/05 12:28:37;;;;;;;9.02;6.07;;;22.70;99.90;;;;;;4888387;29;19925;-82
2022/06/05 12:31:13;;;;;;;8.90;6.10;;;22.70;99.90;;;;;;4885038;29;20051;-83
2022/06/05 12:33:50;;;;;;;7.93;6.45;;;22.80;99.90;;;;;;4866482;29;20494;-82
2022/06/05 12:36:41;;;;;;;6.05;5.45;;;22.80;99.90;;;;;;4888819;29;20501;-83
2022/06/05 12:39:26;;;;;;;7.03;6.32;;;22.90;99.90;;;;;;4883588;29;20044;-83
2022/06/05 12:41:56;;;;;;;7.05;6.18;;;22.90;99.90;;;;;;4879626;29;20049;-83
2022/06/05 12:44:29;;;;;;;7.15;6.43;;;22.90;99.90;;;;;;4885616;29;20069;-83
2022/06/05 12:47:01;;;;;;;9.55;6.38;;;22.90;99.90;;;;;;4884792;29;20045;-83
2022/06/05 12:49:49;;;;;;;6.80;6.20;;;23.00;99.90;;;;;;4869038;29;20119;-82
2022/06/05 12:52:52;;;;;;;7.20;6.07;;;23.10;99.90;;;;;;4871853;29;20132;-83
2022/06/05 12:55:32;;;;;;;5.85;5.28;;;23.10;99.90;;;;;;4871209;29;20128;-83
2022/06/05 12:58:21;;;;;;;6.45;5.30;;;23.20;99.90;;;;;;4884715;29;20044;-82
2022/06/05 13:00:59;;;;;;;6.20;5.60;;;23.30;99.90;;;;;;4871579;29;20040;-83
2022/06/05 13:03:42;;;;;;;9.73;5.70;;;23.30;99.90;;;;;;4876379;29;20049;-83
2022/06/05 13:06:27;;;;;;;7.72;5.68;;;23.40;99.90;;;;;;4885252;29;20051;-83
2022/06/05 13:09:00;;;;;;;5.95;5.40;;;23.40;99.90;;;;;;4878421;29;20493;-83
2022/06/05 13:11:26;;;;;;;6.53;5.05;;;23.50;99.90;;;;;;4877236;29;20520;-83
2022/06/05 13:14:07;;;;;;;5.75;5.15;;;23.50;99.90;;;;;;4873438;29;20072;-83
2022/06/05 13:16:55;;;;;;;8.32;5.40;;;23.50;99.90;;;;;;4885648;29;20105;-83
2022/06/05 13:19:29;;;;;;;5.88;5.10;;;23.60;99.90;;;;;;4874052;29;20052;-83
2022/06/05 13:22:25;;;;;;;6.00;5.15;;;23.60;99.90;;;;;;4880057;29;20100;-83
2022/06/05 13:25:26;;;;;;;6.03;4.93;;;23.70;99.90;;;;;;4890898;29;20516;-83
2022/06/05 13:28:14;;;;;;;5.85;5.25;;;23.80;99.90;;;;;;4866388;29;20516;-83